Time;durP1;ratioP1;P1;durP2;ratioP2;P2;SDS_P1;SDS_P2;PMS_P1;PMS_P2;Temp;Humidity;BMP_temperature;BMP_pressure;BME280_temperature;BME280_humidity;BME280_pressure;Samples;Min_cycle;Max_cycle;Signal;HPM_P1;HPM_P2
2023/01/07 07:39:01;;;;;;;6.82;6.22;;;5.50;99.90;;;;;;4973934;28;20256;-73
2023/01/07 07:41:29;;;;;;;7.78;7.07;;;5.50;99.90;;;;;;4974488;28;20211;-75
2023/01/07 07:43:55;;;;;;;6.97;6.38;;;5.50;99.90;;;;;;4974932;28;20208;-72
2023/01/07 07:46:22;;;;;;;7.85;7.15;;;5.50;99.90;;;;;;4974888;28;20214;-72
2023/01/07 07:48:49;;;;;;;7.60;6.82;;;5.50;99.90;;;;;;4993006;28;20269;-72
2023/01/07 07:51:16;;;;;;;7.57;6.88;;;5.50;99.90;;;;;;4994774;28;20207;-72
2023/01/07 07:53:43;;;;;;;7.50;6.82;;;5.60;99.90;;;;;;4994198;28;20241;-72
2023/01/07 07:56:11;;;;;;;7.50;6.90;;;5.60;99.90;;;;;;4994218;28;20214;-72
2023/01/07 07:58:37;;;;;;;6.65;6.15;;;5.70;99.90;;;;;;4994220;28;20219;-72
2023/01/07 08:01:05;;;;;;;7.43;6.72;;;5.60;99.90;;;;;;4994224;28;20202;-72
2023/01/07 08:03:31;;;;;;;7.90;6.75;;;5.60;99.90;;;;;;4994227;28;20194;-72
2023/01/07 08:05:58;;;;;;;8.40;7.60;;;5.60;99.90;;;;;;4994142;28;20206;-72
2023/01/07 08:08:25;;;;;;;7.22;6.53;;;5.60;99.90;;;;;;4994299;28;20241;-72
2023/01/07 08:10:54;;;;;;;7.30;6.60;;;5.60;99.90;;;;;;4993889;28;20689;-72
2023/01/07 08:13:22;;;;;;;7.53;6.82;;;5.70;99.90;;;;;;4993984;28;20233;-72
2023/01/07 08:15:49;;;;;;;8.30;7.50;;;5.60;99.90;;;;;;4994029;28;20203;-72
2023/01/07 08:18:17;;;;;;;8.15;7.45;;;5.60;99.90;;;;;;4997894;28;20263;-72
2023/01/07 08:20:44;;;;;;;7.35;6.65;;;5.60;99.90;;;;;;4997990;28;20209;-72
2023/01/07 08:23:11;;;;;;;7.32;6.72;;;5.60;99.90;;;;;;4997839;28;20203;-72
2023/01/07 08:25:37;;;;;;;7.25;6.65;;;5.60;99.90;;;;;;4997850;28;20207;-72
2023/01/07 08:28:05;;;;;;;7.55;6.85;;;5.60;99.90;;;;;;4997713;28;20226;-72
2023/01/07 08:30:33;;;;;;;7.30;6.55;;;5.60;99.90;;;;;;4998290;28;20211;-72
2023/01/07 08:33:00;;;;;;;7.47;6.78;;;5.60;99.90;;;;;;4997608;28;20218;-72
2023/01/07 08:35:27;;;;;;;7.60;6.60;;;5.70;99.90;;;;;;4997412;28;20665;-72
2023/01/07 08:38:01;;;;;;;8.05;7.28;;;5.60;99.90;;;;;;4997540;28;20230;-72
2023/01/07 08:40:28;;;;;;;7.82;7.05;;;5.60;99.90;;;;;;4997431;28;20300;-71
2023/01/07 08:42:58;;;;;;;8.38;7.47;;;5.60;99.90;;;;;;4997243;28;20642;-71
2023/01/07 08:45:25;;;;;;;8.82;7.03;;;5.70;99.90;;;;;;4997239;28;20683;-71
2023/01/07 08:47:56;;;;;;;7.50;6.82;;;5.80;99.90;;;;;;4997370;28;20230;-71
2023/01/07 08:50:23;;;;;;;7.68;6.80;;;5.80;99.90;;;;;;4997383;28;20222;-72
2023/01/07 08:52:50;;;;;;;9.82;7.35;;;5.80;99.90;;;;;;4997161;28;20251;-72
2023/01/07 08:55:16;;;;;;;6.80;6.20;;;5.90;99.90;;;;;;4997362;28;20214;-72
2023/01/07 08:57:43;;;;;;;6.50;5.93;;;5.90;99.90;;;;;;4996811;28;20714;-72
2023/01/07 09:00:11;;;;;;;6.93;6.32;;;5.80;99.90;;;;;;4997112;28;20214;-72
2023/01/07 09:02:38;;;;;;;6.93;6.25;;;5.70;99.90;;;;;;4997047;28;20198;-72
2023/01/07 09:05:07;;;;;;;7.43;6.72;;;5.70;99.90;;;;;;4997318;28;20203;-72
2023/01/07 09:07:34;;;;;;;6.57;6.05;;;5.70;99.90;;;;;;4996998;28;20229;-72
2023/01/07 09:10:00;;;;;;;6.32;5.72;;;5.80;99.90;;;;;;4996965;28;20206;-72
2023/01/07 09:12:27;;;;;;;6.60;6.05;;;5.90;99.90;;;;;;4996832;28;20214;-72
2023/01/07 09:14:54;;;;;;;7.18;6.43;;;5.90;99.90;;;;;;4996576;28;20669;-72
2023/01/07 09:17:21;;;;;;;6.85;6.15;;;5.90;99.90;;;;;;4996715;28;20226;-72
2023/01/07 09:19:48;;;;;;;6.63;6.03;;;5.90;99.90;;;;;;4996970;28;20202;-72
2023/01/07 09:22:16;;;;;;;6.90;6.30;;;6.00;99.90;;;;;;4996782;28;20202;-71
2023/01/07 09:24:42;;;;;;;7.32;5.70;;;6.00;99.90;;;;;;4996366;28;20692;-71
2023/01/07 09:27:09;;;;;;;7.70;5.35;;;6.10;99.90;;;;;;4995970;28;20281;-72
2023/01/07 09:29:36;;;;;;;6.07;5.57;;;6.10;99.90;;;;;;4997155;28;20257;-71
2023/01/07 09:32:03;;;;;;;6.47;5.45;;;6.10;99.90;;;;;;4998960;28;20674;-72
2023/01/07 09:34:30;;;;;;;6.05;5.55;;;6.20;99.90;;;;;;5000306;28;20214;-72
2023/01/07 09:36:58;;;;;;;6.47;5.88;;;6.20;99.90;;;;;;5000365;28;20227;-72
2023/01/07 09:39:27;;;;;;;6.28;5.78;;;6.20;99.90;;;;;;5001457;28;20257;-72
2023/01/07 09:42:03;;;;;;;7.45;6.75;;;6.20;99.90;;;;;;5001305;28;20183;-72
2023/01/07 09:44:46;;;;;;;6.15;5.68;;;6.20;99.90;;;;;;5001683;28;20214;-72
2023/01/07 09:47:16;;;;;;;8.98;7.65;;;6.20;99.90;;;;;;4996503;28;20258;-72
2023/01/07 09:49:46;;;;;;;7.30;6.13;;;6.30;99.90;;;;;;4996715;28;20203;-72
2023/01/07 09:52:17;;;;;;;6.47;5.88;;;6.30;99.90;;;;;;4996656;28;20293;-72
2023/01/07 09:54:47;;;;;;;6.55;5.95;;;6.40;99.90;;;;;;4996425;28;20191;-72
2023/01/07 09:57:16;;;;;;;7.60;6.80;;;6.40;99.90;;;;;;4996457;28;20226;-71
2023/01/07 09:59:43;;;;;;;6.38;5.82;;;6.50;99.90;;;;;;4996305;28;20286;-72
2023/01/07 10:02:27;;;;;;;6.32;5.82;;;6.50;99.90;;;;;;4996225;28;20199;-71
2023/01/07 10:05:01;;;;;;;6.78;6.18;;;6.50;99.90;;;;;;4996450;28;20639;-72
2023/01/07 10:07:36;;;;;;;7.03;6.05;;;6.50;99.90;;;;;;4996240;28;20226;-72
2023/01/07 10:10:12;;;;;;;6.93;6.25;;;6.60;99.90;;;;;;4995823;28;20201;-71
2023/01/07 10:12:49;;;;;;;6.68;6.07;;;6.60;99.90;;;;;;4996019;28;20210;-72
2023/01/07 10:15:28;;;;;;;6.18;5.65;;;6.60;99.90;;;;;;4995925;28;20198;-71
2023/01/07 10:18:14;;;;;;;6.50;5.90;;;6.60;99.90;;;;;;4995674;28;20710;-74
2023/01/07 10:20:46;;;;;;;6.65;6.07;;;6.70;99.90;;;;;;4995692;28;20195;-75
2023/01/07 10:23:16;;;;;;;6.90;6.40;;;6.80;99.90;;;;;;4995575;28;20631;-74
2023/01/07 10:25:48;;;;;;;7.20;6.60;;;6.80;99.90;;;;;;4996853;28;20206;-75
2023/01/07 10:28:20;;;;;;;6.57;6.03;;;6.80;99.90;;;;;;4998975;28;20629;-75
2023/01/07 10:30:51;;;;;;;7.00;6.20;;;6.80;99.90;;;;;;4999768;28;20194;-74
2023/01/07 10:33:23;;;;;;;7.45;6.75;;;6.90;99.90;;;;;;4997621;28;20674;-75
2023/01/07 10:35:58;;;;;;;6.90;6.20;;;6.90;99.90;;;;;;4995599;28;20194;-74
2023/01/07 10:38:26;;;;;;;7.63;6.70;;;6.90;99.90;;;;;;4995228;28;20245;-75
2023/01/07 10:40:57;;;;;;;7.03;6.15;;;6.90;99.90;;;;;;4995053;28;20206;-75
2023/01/07 10:43:38;;;;;;;7.10;6.45;;;6.90;99.90;;;;;;4995538;28;20183;-75
2023/01/07 10:46:18;;;;;;;6.53;5.85;;;6.90;99.90;;;;;;4995598;28;20190;-75
2023/01/07 10:49:04;;;;;;;6.60;6.07;;;6.90;99.90;;;;;;4995104;28;20223;-75
2023/01/07 10:52:08;;;;;;;6.95;6.35;;;6.90;99.90;;;;;;4995223;28;20191;-75
2023/01/07 10:54:53;;;;;;;6.65;6.15;;;6.90;99.90;;;;;;4995170;28;20206;-75
2023/01/07 10:57:24;;;;;;;7.18;6.55;;;6.90;99.90;;;;;;4994949;28;20226;-76
2023/01/07 10:59:53;;;;;;;6.30;5.80;;;6.80;99.90;;;;;;4994649;28;20635;-74
2023/01/07 11:02:25;;;;;;;5.95;5.45;;;6.80;99.90;;;;;;4994692;28;20202;-73
2023/01/07 11:04:53;;;;;;;6.03;5.20;;;6.90;99.90;;;;;;4994818;28;20187;-73
2023/01/07 11:07:28;;;;;;;6.18;5.68;;;6.90;99.90;;;;;;4995831;28;20223;-75
2023/01/07 11:09:58;;;;;;;5.68;5.18;;;6.90;99.90;;;;;;4995239;28;20609;-75
2023/01/07 11:12:34;;;;;;;5.10;4.72;;;6.90;99.90;;;;;;4994869;28;20210;-75
2023/01/07 11:15:04;;;;;;;6.28;5.70;;;7.00;99.90;;;;;;4994902;28;20195;-75
2023/01/07 11:17:37;;;;;;;5.47;4.97;;;7.10;99.90;;;;;;4994667;28;20226;-75
2023/01/07 11:20:05;;;;;;;5.57;5.13;;;7.10;99.90;;;;;;4994713;28;20194;-75
2023/01/07 11:22:34;;;;;;;5.82;5.32;;;7.10;99.90;;;;;;4994782;28;20209;-75
2023/01/07 11:25:02;;;;;;;6.80;5.75;;;7.20;99.90;;;;;;4994632;28;20207;-75
2023/01/07 11:27:33;;;;;;;6.15;5.55;;;7.20;99.90;;;;;;4994582;28;20222;-75
2023/01/07 11:30:03;;;;;;;5.88;5.38;;;7.10;99.90;;;;;;4994781;28;20242;-75
2023/01/07 11:32:32;;;;;;;6.35;5.75;;;7.10;99.90;;;;;;4994517;28;20234;-75
2023/01/07 11:35:01;;;;;;;5.68;5.18;;;7.00;99.90;;;;;;4994549;28;20261;-75
2023/01/07 11:37:34;;;;;;;6.57;5.75;;;6.90;99.90;;;;;;4994488;28;20222;-75
2023/01/07 11:40:04;;;;;;;6.28;5.78;;;6.80;99.90;;;;;;4994473;28;20210;-75
2023/01/07 11:42:38;;;;;;;5.95;5.45;;;6.80;99.90;;;;;;4994347;28;20218;-72
2023/01/07 11:45:12;;;;;;;5.55;5.15;;;6.80;99.90;;;;;;4994693;28;20190;-74
2023/01/07 11:47:44;;;;;;;6.20;5.68;;;6.90;99.90;;;;;;4994518;28;20222;-73
2023/01/07 11:50:25;;;;;;;6.20;5.38;;;7.10;99.90;;;;;;4994228;28;20223;-74
2023/01/07 11:52:57;;;;;;;9.30;5.50;;;7.10;99.90;;;;;;4993663;28;20633;-74
2023/01/07 11:55:24;;;;;;;6.55;5.95;;;7.10;99.90;;;;;;4994452;28;20646;-73
2023/01/07 11:57:55;;;;;;;7.78;6.93;;;7.00;99.90;;;;;;4994182;28;20250;-74
2023/01/07 12:00:22;;;;;;;17.48;7.40;;;6.80;99.90;;;;;;4994176;28;20601;-74
2023/01/07 12:03:03;;;;;;;10.32;6.45;;;6.80;99.90;;;;;;4994444;28;20196;-75
2023/01/07 12:05:30;;;;;;;7.75;6.43;;;6.70;99.90;;;;;;4994397;28;20337;-76
2023/01/07 12:07:58;;;;;;;8.43;6.38;;;6.70;99.90;;;;;;4994105;28;20226;-75
2023/01/07 12:10:28;;;;;;;7.88;6.90;;;6.80;99.90;;;;;;4994002;28;20203;-75
2023/01/07 12:12:56;;;;;;;7.60;6.80;;;6.70;99.90;;;;;;4994412;28;20225;-75
2023/01/07 12:15:28;;;;;;;8.70;6.38;;;6.80;99.90;;;;;;4994422;28;20213;-75
2023/01/07 12:18:14;;;;;;;8.45;6.82;;;6.80;99.90;;;;;;4994414;28;20223;-74
2023/01/07 12:20:55;;;;;;;10.50;8.32;;;6.90;99.90;;;;;;4994472;28;20191;-75
2023/01/07 12:23:33;;;;;;;8.90;7.28;;;6.90;99.90;;;;;;4994315;28;20542;-76
2023/01/07 12:26:08;;;;;;;7.72;6.93;;;6.80;99.90;;;;;;4994116;28;20187;-75
2023/01/07 12:28:48;;;;;;;9.05;7.60;;;6.80;99.90;;;;;;4994369;28;20313;-76
2023/01/07 12:31:26;;;;;;;11.57;7.55;;;6.90;99.90;;;;;;4994135;28;20194;-75
2023/01/07 12:34:06;;;;;;;8.43;7.60;;;6.80;99.90;;;;;;4994089;28;20229;-76
2023/01/07 12:36:39;;;;;;;8.10;6.68;;;6.80;99.90;;;;;;4994210;28;20242;-77
2023/01/07 12:39:11;;;;;;;10.18;8.13;;;6.80;99.90;;;;;;4994685;28;20195;-75
2023/01/07 12:41:44;;;;;;;7.68;6.90;;;6.80;99.90;;;;;;4994060;28;20198;-75
2023/01/07 12:44:18;;;;;;;8.82;7.95;;;6.80;99.90;;;;;;4993610;28;20592;-75
2023/01/07 12:46:57;;;;;;;7.60;6.90;;;6.80;99.90;;;;;;4994673;28;20252;-74
2023/01/07 12:49:27;;;;;;;7.63;6.82;;;6.80;99.90;;;;;;4993664;28;20552;-74
2023/01/07 12:52:00;;;;;;;7.63;6.93;;;6.80;99.90;;;;;;4995062;28;20191;-73
2023/01/07 12:54:40;;;;;;;7.55;6.53;;;6.70;99.90;;;;;;5000132;28;20206;-75
2023/01/07 12:57:15;;;;;;;8.63;7.32;;;6.70;99.90;;;;;;5001370;28;20226;-74
2023/01/07 12:59:47;;;;;;;8.27;7.43;;;6.80;99.90;;;;;;4998002;28;20214;-75
2023/01/07 13:02:24;;;;;;;10.05;7.90;;;6.90;99.90;;;;;;4994530;28;20187;-75
2023/01/07 13:05:04;;;;;;;9.23;7.88;;;6.80;99.90;;;;;;4997371;28;20187;-74
2023/01/07 13:07:38;;;;;;;8.85;7.95;;;6.80;99.90;;;;;;4997041;28;20229;-73
2023/01/07 13:10:14;;;;;;;8.38;7.30;;;6.80;99.90;;;;;;4997094;28;20209;-73
2023/01/07 13:12:44;;;;;;;8.95;7.18;;;6.90;99.90;;;;;;4997120;28;20191;-73
2023/01/07 13:15:19;;;;;;;7.70;6.93;;;6.90;99.90;;;;;;4996766;28;20548;-74
2023/01/07 13:17:47;;;;;;;8.75;7.88;;;6.90;99.90;;;;;;4996537;28;20701;-74
2023/01/07 13:20:15;;;;;;;7.47;6.75;;;6.90;99.90;;;;;;4996913;28;20223;-73
2023/01/07 13:22:46;;;;;;;7.70;7.00;;;6.80;99.90;;;;;;4996396;28;20207;-73
2023/01/07 13:25:25;;;;;;;7.60;6.82;;;6.80;99.90;;;;;;4996853;28;20190;-73
2023/01/07 13:28:07;;;;;;;12.93;10.50;;;6.70;99.90;;;;;;4996590;28;20649;-73
2023/01/07 13:30:44;;;;;;;16.48;12.15;;;6.70;99.90;;;;;;4997437;28;20222;-75
2023/01/07 13:33:18;;;;;;;9.32;7.43;;;6.70;99.90;;;;;;4996388;28;20211;-75
2023/01/07 13:36:10;;;;;;;8.20;7.40;;;6.60;99.90;;;;;;4996577;28;20183;-75
2023/01/07 13:38:52;;;;;;;8.15;7.28;;;6.50;99.90;;;;;;4993785;28;20222;-75
2023/01/07 13:41:29;;;;;;;8.80;7.65;;;6.50;99.90;;;;;;4996477;28;20222;-74
2023/01/07 13:44:22;;;;;;;8.30;7.47;;;6.50;99.90;;;;;;4996334;28;20657;-76
2023/01/07 13:46:51;;;;;;;9.25;8.05;;;6.40;99.90;;;;;;4996463;28;20222;-75
2023/01/07 13:49:25;;;;;;;7.88;7.18;;;6.40;99.90;;;;;;4996552;28;20198;-77
2023/01/07 13:51:52;;;;;;;7.22;6.53;;;6.50;99.90;;;;;;4996598;28;20274;-72
2023/01/07 13:54:58;;;;;;;7.97;7.18;;;6.40;99.90;;;;;;4995921;28;20729;-72
2023/01/07 13:57:44;;;;;;;8.20;7.35;;;6.40;99.90;;;;;;4995912;28;20740;-73
2023/01/07 14:00:37;;;;;;;7.18;6.47;;;6.30;99.90;;;;;;4996207;28;20190;-73
2023/01/07 14:03:27;;;;;;;7.63;6.82;;;6.20;99.90;;;;;;4993002;28;20214;-72
2023/01/07 14:06:41;;;;;;;12.25;8.60;;;6.20;99.90;;;;;;4995626;28;20695;-72
2023/01/07 14:09:33;;;;;;;8.18;7.40;;;6.20;99.90;;;;;;4996103;28;20192;-72
2023/01/07 14:12:34;;;;;;;8.63;7.72;;;6.10;99.90;;;;;;4995655;28;20198;-72
2023/01/07 14:15:19;;;;;;;7.32;6.63;;;6.10;99.90;;;;;;4995032;28;20229;-72
2023/01/07 14:17:55;;;;;;;7.95;7.07;;;6.10;99.90;;;;;;4995794;28;20227;-72
2023/01/07 14:20:31;;;;;;;8.05;7.00;;;6.20;99.90;;;;;;4995793;28;20195;-72
2023/01/07 14:23:08;;;;;;;7.90;7.03;;;6.20;99.90;;;;;;4996318;28;20190;-72
2023/01/07 14:25:46;;;;;;;8.35;7.55;;;6.10;99.90;;;;;;4995516;28;20210;-72
2023/01/07 14:28:30;;;;;;;8.23;7.43;;;6.10;99.90;;;;;;4995641;28;20225;-73
2023/01/07 14:30:58;;;;;;;8.27;7.47;;;6.00;99.90;;;;;;4995239;28;20585;-72
2023/01/07 14:33:26;;;;;;;8.38;7.45;;;6.00;99.90;;;;;;4995394;28;20333;-72
2023/01/07 14:35:57;;;;;;;8.25;7.38;;;5.90;99.90;;;;;;4995174;28;20670;-72
2023/01/07 14:38:57;;;;;;;15.10;10.40;;;5.80;99.90;;;;;;4995412;28;20222;-71
2023/01/07 14:41:24;;;;;;;7.68;6.63;;;5.80;99.90;;;;;;4995200;28;20777;-71
2023/01/07 14:44:28;;;;;;;8.93;6.57;;;5.70;99.90;;;;;;4995319;28;20199;-71
2023/01/07 14:46:55;;;;;;;8.95;7.38;;;5.60;99.90;;;;;;4995222;28;20531;-71
2023/01/07 14:49:45;;;;;;;6.30;5.70;;;5.50;99.90;;;;;;4995250;28;20206;-72
2023/01/07 14:52:27;;;;;;;7.00;6.30;;;5.30;99.90;;;;;;4995199;28;20601;-72
2023/01/07 14:55:18;;;;;;;8.57;6.70;;;5.20;99.90;;;;;;4995064;28;20215;-72
2023/01/07 14:57:57;;;;;;;6.65;5.55;;;5.10;99.90;;;;;;4982402;28;20593;-72
2023/01/07 15:00:55;;;;;;;6.95;5.57;;;5.00;99.90;;;;;;4994997;28;20547;-72
2023/01/07 15:03:49;;;;;;;6.97;6.20;;;4.90;99.90;;;;;;4984688;28;20219;-72
2023/01/07 15:06:25;;;;;;;7.95;6.90;;;4.80;99.90;;;;;;4994965;28;20222;-72
2023/01/07 15:17:18;;;;;;;8.05;6.05;;;4.40;99.90;;;;;;4996182;28;20218;-71
2023/01/07 15:19:45;;;;;;;5.68;5.18;;;4.30;99.90;;;;;;4994822;28;20191;-72
2023/01/07 15:22:30;;;;;;;6.43;5.82;;;4.30;99.90;;;;;;4994683;28;20198;-72
2023/01/07 15:25:07;;;;;;;6.57;5.18;;;4.20;99.90;;;;;;4994671;28;20206;-72
2023/01/07 15:27:41;;;;;;;8.70;6.18;;;4.10;99.90;;;;;;4994523;28;20256;-72
2023/01/07 15:30:23;;;;;;;9.32;7.35;;;4.00;99.90;;;;;;4994643;28;20688;-72
2023/01/07 15:32:59;;;;;;;6.97;6.30;;;3.90;99.90;;;;;;4994538;28;20190;-72
2023/01/07 15:35:31;;;;;;;10.80;7.50;;;3.90;99.90;;;;;;4994085;28;20577;-72
2023/01/07 15:37:58;;;;;;;8.52;7.45;;;3.80;99.90;;;;;;4994449;28;20273;-72
2023/01/07 15:40:27;;;;;;;12.23;7.10;;;3.70;99.90;;;;;;4994138;28;20237;-72
2023/01/07 15:42:57;;;;;;;8.32;7.00;;;3.60;99.90;;;;;;4994339;28;20209;-72
2023/01/07 15:45:27;;;;;;;7.07;6.38;;;3.60;99.90;;;;;;4994428;28;20270;-72
2023/01/07 15:48:05;;;;;;;7.50;6.75;;;3.60;99.90;;;;;;4994167;28;20226;-72
2023/01/07 15:50:35;;;;;;;6.47;5.88;;;3.50;99.90;;;;;;4994000;28;20653;-72
2023/01/07 15:53:15;;;;;;;7.38;5.45;;;3.40;99.90;;;;;;4993981;28;20690;-72
2023/01/07 15:55:50;;;;;;;6.47;5.88;;;3.30;99.90;;;;;;4994466;28;20210;-72
2023/01/07 15:58:20;;;;;;;6.30;5.65;;;3.20;99.90;;;;;;4994256;28;20253;-72
2023/01/07 16:00:51;;;;;;;6.78;6.18;;;3.20;99.90;;;;;;4994544;28;20248;-72
2023/01/07 16:03:19;;;;;;;6.22;5.63;;;3.10;99.90;;;;;;4994169;28;20286;-72
2023/01/07 16:05:46;;;;;;;6.35;5.75;;;3.00;99.90;;;;;;4994027;28;20198;-71
2023/01/07 16:08:17;;;;;;;7.00;6.22;;;3.00;99.90;;;;;;4994093;28;20229;-73
2023/01/07 16:10:58;;;;;;;7.70;6.45;;;2.90;99.90;;;;;;4994111;28;20190;-71
2023/01/07 16:13:25;;;;;;;6.25;5.68;;;2.90;99.90;;;;;;4993986;28;20232;-70
2023/01/07 16:15:55;;;;;;;6.80;6.15;;;2.80;99.90;;;;;;4993645;28;20229;-72
2023/01/07 16:18:21;;;;;;;6.50;5.85;;;2.80;99.90;;;;;;4993791;28;20233;-73
2023/01/07 16:20:54;;;;;;;7.53;5.78;;;2.70;99.90;;;;;;4993738;28;20578;-71
2023/01/07 16:23:23;;;;;;;7.07;6.35;;;2.70;99.90;;;;;;4994057;28;20191;-72
2023/01/07 16:26:00;;;;;;;6.63;5.95;;;2.70;99.90;;;;;;4993976;28;20285;-75
2023/01/07 16:28:30;;;;;;;7.03;6.20;;;2.60;99.90;;;;;;4993871;28;20222;-73
2023/01/07 16:30:58;;;;;;;9.52;8.05;;;2.60;99.90;;;;;;4993870;28;20186;-73
2023/01/07 16:33:28;;;;;;;7.57;5.65;;;2.60;99.90;;;;;;4994048;28;20207;-74
2023/01/07 16:35:57;;;;;;;7.28;6.47;;;2.60;99.90;;;;;;4994033;28;20203;-73
2023/01/07 16:38:25;;;;;;;10.48;7.88;;;2.50;99.90;;;;;;4996333;28;20682;-72
2023/01/07 16:40:54;;;;;;;11.20;7.68;;;2.50;99.90;;;;;;4997430;28;20210;-73
2023/01/07 16:43:41;;;;;;;6.95;6.35;;;2.50;99.90;;;;;;4997661;28;20198;-72
2023/01/07 16:46:17;;;;;;;6.88;5.60;;;2.40;99.90;;;;;;4997611;28;20207;-73
2023/01/07 16:48:44;;;;;;;7.53;6.15;;;2.40;99.90;;;;;;4997380;28;20724;-73
2023/01/07 16:51:37;;;;;;;6.82;5.90;;;2.30;99.90;;;;;;4997250;28;20825;-72
2023/01/07 16:54:22;;;;;;;9.05;7.32;;;2.30;99.90;;;;;;4997483;28;20270;-73
2023/01/07 16:56:51;;;;;;;10.40;9.23;;;2.20;99.90;;;;;;4997466;28;20225;-74
2023/01/07 16:59:20;;;;;;;11.30;9.15;;;2.20;99.90;;;;;;4997499;28;20209;-73
2023/01/07 17:01:47;;;;;;;9.65;8.25;;;2.20;99.90;;;;;;4997495;28;20210;-72
2023/01/07 17:04:18;;;;;;;10.20;8.07;;;2.10;99.90;;;;;;4997424;28;20199;-71
2023/01/07 17:06:45;;;;;;;8.07;7.28;;;2.10;99.90;;;;;;4997215;28;20282;-71
2023/01/07 17:09:21;;;;;;;9.38;8.45;;;2.10;99.90;;;;;;4996908;28;20665;-71
2023/01/07 17:11:50;;;;;;;8.68;7.78;;;2.00;99.90;;;;;;4997135;28;20229;-71
2023/01/07 17:14:45;;;;;;;9.20;8.00;;;2.00;99.90;;;;;;4996983;28;20206;-73
2023/01/07 17:17:22;;;;;;;8.70;7.82;;;1.90;99.90;;;;;;4996932;28;20226;-71
2023/01/07 17:19:53;;;;;;;9.18;8.07;;;1.90;99.90;;;;;;4996998;28;20186;-72
2023/01/07 17:22:36;;;;;;;7.72;6.97;;;1.90;99.90;;;;;;4997228;28;20191;-72
2023/01/07 17:25:06;;;;;;;7.47;6.68;;;1.80;99.90;;;;;;4996819;28;20218;-73
2023/01/07 17:27:38;;;;;;;8.20;7.32;;;1.80;99.90;;;;;;4996364;28;20728;-71
2023/01/07 17:30:07;;;;;;;9.32;6.95;;;1.70;99.90;;;;;;4996760;28;20194;-74
2023/01/07 17:32:36;;;;;;;7.00;6.30;;;1.70;99.90;;;;;;4996499;28;20206;-72
2023/01/07 17:35:04;;;;;;;10.20;7.18;;;1.60;99.90;;;;;;4996505;28;20214;-72
2023/01/07 17:37:31;;;;;;;10.82;7.15;;;1.60;99.90;;;;;;4996355;28;20554;-73
2023/01/07 17:39:58;;;;;;;8.60;7.70;;;1.60;99.90;;;;;;4996530;28;20233;-72
2023/01/07 17:45:19;;;;;;;10.52;8.90;;;1.50;99.90;;;;;;4996579;28;20229;-72
2023/01/07 17:47:48;;;;;;;10.80;8.32;;;1.50;99.90;;;;;;4996320;28;20227;-73
2023/01/07 17:50:17;;;;;;;10.73;9.25;;;1.50;99.90;;;;;;4995249;28;20199;-73
2023/01/07 17:52:45;;;;;;;9.80;8.15;;;1.40;99.90;;;;;;4996391;28;20210;-74
2023/01/07 17:55:17;;;;;;;8.23;7.43;;;1.40;99.90;;;;;;4996159;28;20229;-73
2023/01/07 17:57:43;;;;;;;10.65;8.45;;;1.40;99.90;;;;;;4995960;28;20222;-74
2023/01/07 18:00:18;;;;;;;13.85;10.32;;;1.50;99.90;;;;;;4996172;28;20202;-73
2023/01/07 18:02:45;;;;;;;22.52;17.75;;;1.50;99.90;;;;;;4996248;28;20195;-74
2023/01/07 18:05:15;;;;;;;15.57;11.25;;;1.40;99.90;;;;;;4995899;28;20209;-73
2023/01/07 18:07:41;;;;;;;9.60;8.45;;;1.40;99.90;;;;;;4995812;28;20590;-72
2023/01/07 18:10:11;;;;;;;10.27;8.80;;;1.40;99.90;;;;;;4995993;28;20573;-73
2023/01/07 18:12:38;;;;;;;8.90;7.88;;;1.40;99.90;;;;;;4995934;28;20206;-73
2023/01/07 18:15:16;;;;;;;10.35;7.70;;;1.40;99.90;;;;;;4995411;28;20694;-73
2023/01/07 18:17:44;;;;;;;12.27;10.07;;;1.40;99.90;;;;;;4995717;28;20223;-73
2023/01/07 18:20:12;;;;;;;9.05;8.13;;;1.40;99.90;;;;;;4996074;28;20199;-73
2023/01/07 18:22:38;;;;;;;9.57;8.55;;;1.40;99.90;;;;;;4995746;28;20261;-72
2023/01/07 18:25:06;;;;;;;9.93;8.57;;;1.40;99.90;;;;;;4995648;28;20207;-72
2023/01/07 18:27:35;;;;;;;9.68;8.13;;;1.40;99.90;;;;;;4998741;28;20218;-72
2023/01/07 18:30:03;;;;;;;8.80;7.50;;;1.40;99.90;;;;;;5000013;28;20207;-72
2023/01/07 18:32:30;;;;;;;7.78;6.97;;;1.50;99.90;;;;;;5000469;28;20211;-74
2023/01/07 18:34:59;;;;;;;9.40;7.05;;;1.40;99.90;;;;;;4999282;28;20250;-75
2023/01/07 18:37:27;;;;;;;7.65;6.85;;;1.40;99.90;;;;;;4998874;28;20222;-72
2023/01/07 18:40:00;;;;;;;9.73;7.00;;;1.40;99.90;;;;;;4998029;28;20218;-72
2023/01/07 18:42:27;;;;;;;11.38;8.20;;;1.40;99.90;;;;;;4996760;28;20183;-72
2023/01/07 18:44:54;;;;;;;10.80;8.65;;;1.30;99.90;;;;;;4995960;28;20260;-72
2023/01/07 18:47:21;;;;;;;9.20;7.93;;;1.30;99.90;;;;;;4995312;28;20234;-72
2023/01/07 18:49:47;;;;;;;11.18;8.38;;;1.30;99.90;;;;;;4995279;28;20229;-72
2023/01/07 18:52:16;;;;;;;24.77;14.57;;;1.40;99.90;;;;;;4998359;28;20199;-72
2023/01/07 18:54:44;;;;;;;15.60;9.82;;;1.30;99.90;;;;;;4999574;28;20207;-72
2023/01/07 18:57:14;;;;;;;13.70;9.88;;;1.30;99.90;;;;;;4999118;28;20293;-72
2023/01/07 18:59:41;;;;;;;13.07;10.38;;;1.40;99.90;;;;;;4999588;28;20235;-73
2023/01/07 19:02:14;;;;;;;14.27;11.32;;;1.30;99.90;;;;;;4999567;28;20269;-73
2023/01/07 19:04:41;;;;;;;11.35;8.93;;;1.30;99.90;;;;;;4993837;28;20190;-73
2023/01/07 19:07:08;;;;;;;17.75;12.38;;;1.30;99.90;;;;;;4994844;28;20222;-73
2023/01/07 19:09:36;;;;;;;12.40;8.10;;;1.30;99.90;;;;;;4994791;28;20293;-73
2023/01/07 19:12:03;;;;;;;8.82;7.50;;;1.30;99.90;;;;;;4994766;28;20207;-73
2023/01/07 19:14:29;;;;;;;9.15;8.15;;;1.30;99.90;;;;;;4994883;28;20260;-74
2023/01/07 19:16:56;;;;;;;11.18;8.95;;;1.30;99.90;;;;;;4995043;28;20284;-74
2023/01/07 19:19:23;;;;;;;10.25;9.10;;;1.30;99.90;;;;;;4994705;28;20206;-77
2023/01/07 19:21:50;;;;;;;10.10;8.20;;;1.20;99.90;;;;;;4994725;28;20202;-75
2023/01/07 19:24:17;;;;;;;12.23;9.82;;;1.20;99.90;;;;;;4994312;28;20682;-75
2023/01/07 19:26:45;;;;;;;14.23;10.15;;;1.20;99.90;;;;;;4994257;28;20681;-75
2023/01/07 19:29:12;;;;;;;17.23;11.13;;;1.30;99.90;;;;;;4994538;28;20298;-75
2023/01/07 19:31:39;;;;;;;14.30;9.57;;;1.30;99.90;;;;;;4994996;28;20203;-73
2023/01/07 19:34:06;;;;;;;12.20;9.95;;;1.30;99.90;;;;;;4994527;28;20254;-74
2023/01/07 19:36:32;;;;;;;11.10;8.93;;;1.20;99.90;;;;;;4994502;28;20231;-75
2023/01/07 19:38:59;;;;;;;10.57;7.88;;;1.20;99.90;;;;;;4994330;28;20234;-75
2023/01/07 19:41:27;;;;;;;12.57;9.32;;;1.20;99.90;;;;;;4994178;28;20211;-78
2023/01/07 19:43:59;;;;;;;16.33;9.10;;;1.20;99.90;;;;;;4995470;28;20294;-76
2023/01/07 19:46:27;;;;;;;10.27;8.57;;;1.20;99.90;;;;;;4994440;28;20191;-76
2023/01/07 19:48:54;;;;;;;11.63;9.32;;;1.20;99.90;;;;;;4993938;28;20602;-76
2023/01/07 19:51:20;;;;;;;13.38;9.52;;;1.20;99.90;;;;;;4994296;28;20207;-76
2023/01/07 19:53:47;;;;;;;14.55;10.45;;;1.20;99.90;;;;;;4994256;28;20206;-74
2023/01/07 19:56:14;;;;;;;14.25;11.50;;;1.10;99.90;;;;;;4994221;28;20214;-75
2023/01/07 19:58:41;;;;;;;17.13;11.15;;;1.20;99.90;;;;;;4994495;28;20250;-77
2023/01/07 20:01:12;;;;;;;13.55;10.02;;;1.20;99.90;;;;;;4994307;28;20646;-75
2023/01/07 20:03:39;;;;;;;15.25;10.60;;;1.20;99.90;;;;;;4994472;28;20194;-76
2023/01/07 20:06:08;;;;;;;12.52;9.38;;;1.20;99.90;;;;;;4994261;28;20729;-75
2023/01/07 20:08:34;;;;;;;13.30;9.98;;;1.20;99.90;;;;;;4994673;28;20218;-75
2023/01/07 20:11:01;;;;;;;14.23;11.27;;;1.20;99.90;;;;;;4995611;28;20261;-76
2023/01/07 20:13:33;;;;;;;15.15;11.52;;;1.20;99.90;;;;;;4997588;28;20205;-75
2023/01/07 20:16:03;;;;;;;13.15;11.10;;;1.20;99.90;;;;;;4998989;28;20202;-74
2023/01/07 20:18:31;;;;;;;21.10;14.38;;;1.20;99.90;;;;;;4998160;28;20318;-74
2023/01/07 20:20:59;;;;;;;13.32;11.68;;;1.20;99.90;;;;;;4997858;28;20680;-74
2023/01/07 20:23:27;;;;;;;16.95;12.25;;;1.20;99.90;;;;;;4998168;28;20210;-75
2023/01/07 20:25:53;;;;;;;15.73;10.38;;;1.20;99.90;;;;;;4998000;28;20199;-76
2023/01/07 20:28:20;;;;;;;14.05;11.15;;;1.20;99.90;;;;;;4998144;28;20230;-74
2023/01/07 20:30:47;;;;;;;12.75;10.52;;;1.20;99.90;;;;;;4998013;28;20203;-78
2023/01/07 20:33:14;;;;;;;12.52;10.18;;;1.20;99.90;;;;;;4997967;28;20294;-77
2023/01/07 20:35:42;;;;;;;14.73;9.88;;;1.10;99.90;;;;;;4998252;28;20579;-76
2023/01/07 20:38:10;;;;;;;12.35;10.10;;;1.10;99.90;;;;;;4997703;28;20741;-76
2023/01/07 20:40:38;;;;;;;11.98;9.85;;;1.10;99.90;;;;;;4997712;28;20218;-76
2023/01/07 20:43:04;;;;;;;13.02;10.00;;;1.10;99.90;;;;;;4998082;28;20253;-74
2023/01/07 20:45:32;;;;;;;11.05;9.82;;;1.00;99.90;;;;;;4997530;28;20234;-74
2023/01/07 20:47:59;;;;;;;13.65;9.60;;;1.00;99.90;;;;;;4997336;28;20231;-75
2023/01/07 20:50:26;;;;;;;13.15;9.63;;;0.90;99.90;;;;;;4997854;28;20281;-75
2023/01/07 20:52:54;;;;;;;10.00;9.00;;;0.90;99.90;;;;;;4997678;28;20682;-76
2023/01/07 20:55:20;;;;;;;13.70;10.73;;;0.90;99.90;;;;;;4997733;28;20206;-75
2023/01/07 20:57:47;;;;;;;15.50;10.18;;;0.80;99.90;;;;;;4997476;28;20223;-75
2023/01/07 21:00:15;;;;;;;16.63;12.75;;;0.80;99.90;;;;;;4997337;28;20276;-76
2023/01/07 21:02:41;;;;;;;18.00;11.90;;;0.70;99.90;;;;;;4997076;28;20616;-75
2023/01/07 21:05:09;;;;;;;14.77;11.68;;;0.70;99.90;;;;;;4998725;28;20202;-77
2023/01/07 21:07:35;;;;;;;19.48;13.93;;;0.70;99.90;;;;;;4997224;28;20310;-75